Time;durP1;ratioP1;P1;durP2;ratioP2;P2;SDS_P1;SDS_P2;PMS_P1;PMS_P2;Temp;Humidity;BMP_temperature;BMP_pressure;BME280_temperature;BME280_humidity;BME280_pressure;Samples;Min_cycle;Max_cycle;Signal;HPM_P1;HPM_P2
2023/11/26 00:02:04;;;;;;;8.00;7.20;;;;;;;;;;4996769;28;20519;-84
2023/11/26 00:04:30;;;;;;;10.43;7.53;;;;;;;;;;4995156;28;20450;-83
2023/11/26 00:06:58;;;;;;;11.50;6.43;;;;;;;;;;4985678;28;20485;-83
2023/11/26 00:09:24;;;;;;;9.50;7.20;;;;;;;;;;4995071;28;20537;-83
2023/11/26 00:11:51;;;;;;;11.60;7.37;;;;;;;;;;5000441;28;20447;-83
2023/11/26 00:14:18;;;;;;;9.57;6.80;;;;;;;;;;4993503;28;20503;-83
2023/11/26 00:16:45;;;;;;;7.70;6.23;;;;;;;;;;4994468;28;20490;-85
2023/11/26 00:19:11;;;;;;;9.60;6.50;;;;;;;;;;4994585;28;20460;-85
2023/11/26 00:21:38;;;;;;;7.80;7.00;;;;;;;;;;4991085;28;20539;-85
2023/11/26 00:24:06;;;;;;;9.10;6.50;;;;;;;;;;4998529;28;20921;-84
2023/11/26 00:26:33;;;;;;;8.93;5.23;;;;;;;;;;4994377;28;20452;-85
2023/11/26 00:28:59;;;;;;;8.17;5.67;;;;;;;;;;4997804;28;20468;-83
2023/11/26 00:31:26;;;;;;;7.90;5.97;;;;;;;;;;4999890;28;20451;-83
2023/11/26 00:33:53;;;;;;;12.20;6.37;;;;;;;;;;4998329;28;20522;-84
2023/11/26 00:36:21;;;;;;;12.10;7.07;;;;;;;;;;4997528;28;20460;-83
2023/11/26 00:38:47;;;;;;;7.40;5.70;;;;;;;;;;4998284;28;20495;-83
2023/11/26 00:41:16;;;;;;;9.40;6.73;;;;;;;;;;4999501;28;20539;-83
2023/11/26 00:43:43;;;;;;;8.50;7.00;;;;;;;;;;4990721;28;20522;-85
2023/11/26 00:46:09;;;;;;;8.80;6.37;;;;;;;;;;4996837;28;20476;-84
2023/11/26 00:48:37;;;;;;;10.50;5.40;;;;;;;;;;4997365;28;20512;-84
2023/11/26 00:51:04;;;;;;;8.57;6.10;;;;;;;;;;4994124;28;20833;-84
2023/11/26 00:53:30;;;;;;;6.77;5.47;;;;;;;;;;4989428;28;20487;-85
2023/11/26 00:55:57;;;;;;;9.23;5.43;;;;;;;;;;4989207;28;20494;-85
2023/11/26 00:58:25;;;;;;;6.40;5.63;;;;;;;;;;5000125;28;21038;-84
2023/11/26 01:00:51;;;;;;;12.27;6.70;;;;;;;;;;4995963;28;20451;-87
2023/11/26 01:03:18;;;;;;;9.30;7.13;;;;;;;;;;4989780;28;20486;-84
2023/11/26 01:05:45;;;;;;;13.37;6.40;;;;;;;;;;4987126;28;20933;-84
2023/11/26 01:08:11;;;;;;;9.67;6.10;;;;;;;;;;4987504;28;20472;-84
2023/11/26 01:10:38;;;;;;;11.00;7.03;;;;;;;;;;4994171;28;20539;-83
2023/11/26 01:13:04;;;;;;;11.87;7.03;;;;;;;;;;4990283;28;20512;-84
2023/11/26 01:15:33;;;;;;;12.90;7.97;;;;;;;;;;4998552;28;20973;-84
2023/11/26 01:17:59;;;;;;;8.33;7.00;;;;;;;;;;4997456;28;20491;-85
2023/11/26 01:20:26;;;;;;;9.97;6.77;;;;;;;;;;4999624;28;20515;-85
2023/11/26 01:22:52;;;;;;;8.97;7.00;;;;;;;;;;4997636;28;20582;-86
2023/11/26 01:25:19;;;;;;;10.00;7.43;;;;;;;;;;5000284;28;20494;-84
2023/11/26 01:27:45;;;;;;;12.03;6.30;;;;;;;;;;4997033;28;20938;-85
2023/11/26 01:30:12;;;;;;;9.90;7.83;;;;;;;;;;4994715;28;20513;-86
2023/11/26 01:32:40;;;;;;;10.37;8.17;;;;;;;;;;4987819;28;20496;-86
2023/11/26 01:35:08;;;;;;;10.20;8.73;;;;;;;;;;4987111;28;20542;-85
2023/11/26 01:37:34;;;;;;;12.27;8.10;;;;;;;;;;4991353;28;20495;-85
2023/11/26 01:40:01;;;;;;;13.77;9.77;;;;;;;;;;4987805;28;20473;-86
2023/11/26 01:42:27;;;;;;;10.37;8.00;;;;;;;;;;4995108;28;20525;-85
2023/11/26 01:44:52;;;;;;;13.30;8.90;;;;;;;;;;4994163;28;20509;-85
2023/11/26 01:47:19;;;;;;;9.97;8.50;;;;;;;;;;4997756;28;20483;-85
2023/11/26 01:49:47;;;;;;;10.50;9.60;;;;;;;;;;4986206;28;20268;-86
2023/11/26 01:52:14;;;;;;;14.93;8.60;;;;;;;;;;4987131;28;20459;-84
2023/11/26 01:54:42;;;;;;;10.60;8.97;;;;;;;;;;4995379;28;20459;-83
2023/11/26 01:57:10;;;;;;;13.73;8.90;;;;;;;;;;4988105;28;20528;-82
2023/11/26 01:59:36;;;;;;;10.23;7.77;;;;;;;;;;4990119;28;20825;-83
2023/11/26 02:02:03;;;;;;;10.30;8.30;;;;;;;;;;4995525;28;20965;-82
2023/11/26 02:04:30;;;;;;;10.87;7.67;;;;;;;;;;4997012;28;20554;-82
2023/11/26 02:06:57;;;;;;;10.73;8.13;;;;;;;;;;4998000;28;20456;-82
2023/11/26 02:09:26;;;;;;;11.30;8.43;;;;;;;;;;4995280;28;20495;-83
2023/11/26 02:11:52;;;;;;;15.30;8.93;;;;;;;;;;4991033;28;20479;-82
2023/11/26 02:14:19;;;;;;;11.77;8.00;;;;;;;;;;4997468;28;20471;-82
2023/11/26 02:16:46;;;;;;;8.47;7.57;;;;;;;;;;4995211;28;20532;-84
2023/11/26 02:19:20;;;;;;;10.30;7.80;;;;;;;;;;4998829;28;20574;-84
2023/11/26 02:21:46;;;;;;;8.10;7.30;;;;;;;;;;4996040;28;20821;-85
2023/11/26 02:24:16;;;;;;;9.97;8.03;;;;;;;;;;4998263;28;20769;-84
2023/11/26 02:26:44;;;;;;;9.70;7.80;;;;;;;;;;4993628;28;20540;-84
2023/11/26 02:29:10;;;;;;;9.73;8.00;;;;;;;;;;5001150;28;20487;-83
2023/11/26 02:31:38;;;;;;;8.97;7.70;;;;;;;;;;5000155;28;20529;-84
2023/11/26 02:34:04;;;;;;;10.70;7.30;;;;;;;;;;4999277;28;20537;-85
2023/11/26 02:36:30;;;;;;;14.00;7.80;;;;;;;;;;4997952;28;20504;-85
2023/11/26 02:38:57;;;;;;;13.50;7.83;;;;;;;;;;4993451;28;20502;-84
2023/11/26 02:41:24;;;;;;;9.50;8.50;;;;;;;;;;4993344;28;20484;-85
2023/11/26 02:43:52;;;;;;;10.17;8.33;;;;;;;;;;5001424;28;20585;-85
2023/11/26 02:46:18;;;;;;;11.93;8.30;;;;;;;;;;4995599;28;20759;-84
2023/11/26 02:48:45;;;;;;;9.87;7.30;;;;;;;;;;4998944;28;20517;-84
2023/11/26 02:51:11;;;;;;;10.67;8.20;;;;;;;;;;4996588;28;20548;-84
2023/11/26 02:53:38;;;;;;;11.77;7.80;;;;;;;;;;4997329;28;20463;-85
2023/11/26 02:56:04;;;;;;;13.47;8.20;;;;;;;;;;4992312;28;20551;-83
2023/11/26 02:58:31;;;;;;;8.03;6.60;;;;;;;;;;4996707;28;20491;-83
2023/11/26 03:00:59;;;;;;;11.93;8.20;;;;;;;;;;4994974;28;20503;-83
2023/11/26 03:03:25;;;;;;;12.57;8.23;;;;;;;;;;5001647;28;20491;-83
2023/11/26 03:05:54;;;;;;;9.23;7.10;;;;;;;;;;4999032;28;20495;-83
2023/11/26 03:08:22;;;;;;;11.13;7.40;;;;;;;;;;4997088;28;20495;-83
2023/11/26 03:13:33;;;;;;;12.37;7.13;;;;;;;;;;4983094;28;20912;-83
2023/11/26 03:16:00;;;;;;;9.07;8.10;;;;;;;;;;4994443;28;20487;-83
2023/11/26 03:18:27;;;;;;;12.63;7.77;;;;;;;;;;4999262;28;20577;-84
2023/11/26 03:20:55;;;;;;;8.13;6.60;;;;;;;;;;4994795;28;20475;-84
2023/11/26 03:23:24;;;;;;;11.03;7.30;;;;;;;;;;4991032;28;20492;-83
2023/11/26 03:25:50;;;;;;;9.83;7.87;;;;;;;;;;4993632;28;20538;-83
2023/11/26 03:28:17;;;;;;;8.00;7.20;;;;;;;;;;4998360;28;20905;-84
2023/11/26 03:30:43;;;;;;;8.40;6.77;;;;;;;;;;4999140;28;20615;-85
2023/11/26 03:33:15;;;;;;;10.33;7.87;;;;;;;;;;5001140;28;20515;-86
2023/11/26 03:35:41;;;;;;;7.90;6.93;;;;;;;;;;4991607;28;20464;-86
2023/11/26 03:38:08;;;;;;;11.63;7.70;;;;;;;;;;4992318;28;20512;-86
2023/11/26 03:40:34;;;;;;;12.07;8.37;;;;;;;;;;4995730;28;20451;-86
2023/11/26 03:43:01;;;;;;;11.87;7.30;;;;;;;;;;4997154;28;20544;-84
2023/11/26 03:45:28;;;;;;;9.40;7.90;;;;;;;;;;4994878;28;20560;-86
2023/11/26 03:47:55;;;;;;;11.20;7.20;;;;;;;;;;4999478;28;21816;-85
2023/11/26 03:50:23;;;;;;;9.47;7.33;;;;;;;;;;5005542;28;20990;-85
2023/11/26 03:52:49;;;;;;;12.53;7.70;;;;;;;;;;4995332;28;20540;-85
2023/11/26 03:55:16;;;;;;;11.30;7.70;;;;;;;;;;4993514;28;20491;-85
2023/11/26 03:57:43;;;;;;;10.80;7.83;;;;;;;;;;4989296;28;20519;-85
2023/11/26 04:00:10;;;;;;;9.70;7.80;;;;;;;;;;4997792;28;20452;-86
2023/11/26 04:02:36;;;;;;;9.57;8.47;;;;;;;;;;4994478;28;20499;-85
2023/11/26 04:05:04;;;;;;;10.27;7.97;;;;;;;;;;4999133;28;20483;-85
2023/11/26 04:07:32;;;;;;;13.47;8.83;;;;;;;;;;4991872;28;20464;-86
2023/11/26 04:09:58;;;;;;;9.40;7.10;;;;;;;;;;4997882;28;20465;-84
2023/11/26 04:12:24;;;;;;;12.27;9.30;;;;;;;;;;4991676;28;20508;-84
2023/11/26 04:14:55;;;;;;;12.17;8.43;;;;;;;;;;4988872;28;20552;-86
2023/11/26 04:17:21;;;;;;;11.03;8.10;;;;;;;;;;4989667;28;20448;-84
2023/11/26 04:19:48;;;;;;;11.03;7.80;;;;;;;;;;4989363;28;20487;-84
2023/11/26 04:22:14;;;;;;;10.00;8.23;;;;;;;;;;4993478;28;21341;-84
2023/11/26 04:24:43;;;;;;;14.10;9.87;;;;;;;;;;4989540;28;20528;-83
2023/11/26 04:27:09;;;;;;;9.33;8.07;;;;;;;;;;4988946;28;20496;-83
2023/11/26 04:29:35;;;;;;;9.93;8.00;;;;;;;;;;4990115;28;20444;-82
2023/11/26 04:32:02;;;;;;;12.73;7.70;;;;;;;;;;4987511;28;20551;-84
2023/11/26 04:34:29;;;;;;;10.10;7.23;;;;;;;;;;4989383;28;20499;-84
2023/11/26 04:36:56;;;;;;;15.33;7.27;;;;;;;;;;4993098;28;21034;-85
2023/11/26 04:39:23;;;;;;;12.13;8.20;;;;;;;;;;4988897;28;20878;-83
2023/11/26 04:41:52;;;;;;;12.67;7.60;;;;;;;;;;4987961;28;20527;-84
2023/11/26 04:44:18;;;;;;;10.33;8.13;;;;;;;;;;4991049;28;20452;-84
2023/11/26 04:46:45;;;;;;;11.13;9.00;;;;;;;;;;4991773;28;20467;-83
2023/11/26 04:49:12;;;;;;;12.37;7.50;;;;;;;;;;4987107;28;20502;-85
2023/11/26 04:51:38;;;;;;;10.43;7.03;;;;;;;;;;4985692;28;20456;-86
2023/11/26 04:54:05;;;;;;;10.07;8.00;;;;;;;;;;4993964;28;21686;-85
2023/11/26 04:56:36;;;;;;;12.37;9.37;;;;;;;;;;4989012;28;20543;-85
2023/11/26 04:59:03;;;;;;;14.63;7.73;;;;;;;;;;4992998;28;20606;-85
2023/11/26 05:01:30;;;;;;;10.77;8.27;;;;;;;;;;4991733;28;20459;-85
2023/11/26 05:03:56;;;;;;;11.70;7.47;;;;;;;;;;4987795;28;20488;-83
2023/11/26 05:06:22;;;;;;;14.83;9.53;;;;;;;;;;4989136;28;20460;-83
2023/11/26 05:08:49;;;;;;;12.80;8.10;;;;;;;;;;4992985;28;20507;-83
2023/11/26 05:11:16;;;;;;;13.47;9.20;;;;;;;;;;4990291;28;20486;-83
2023/11/26 05:13:43;;;;;;;10.73;8.77;;;;;;;;;;4997238;28;20463;-84
2023/11/26 05:16:11;;;;;;;18.00;12.00;;;;;;;;;;4996273;28;20452;-84
2023/11/26 05:18:37;;;;;;;18.80;11.43;;;;;;;;;;4988863;28;20578;-81
2023/11/26 05:21:04;;;;;;;21.70;12.30;;;;;;;;;;4997483;28;20491;-83
2023/11/26 05:23:30;;;;;;;20.50;11.00;;;;;;;;;;4991835;28;20490;-83
2023/11/26 05:25:57;;;;;;;22.57;12.53;;;;;;;;;;4990228;28;20476;-84
2023/11/26 05:28:26;;;;;;;23.90;13.27;;;;;;;;;;4987305;28;20455;-82
2023/11/26 05:30:52;;;;;;;23.97;13.90;;;;;;;;;;4994223;28;20459;-83
2023/11/26 05:33:20;;;;;;;23.30;14.03;;;;;;;;;;4996070;28;20495;-83
2023/11/26 05:35:48;;;;;;;28.30;14.10;;;;;;;;;;4992550;28;20464;-82
2023/11/26 05:38:14;;;;;;;18.50;12.10;;;;;;;;;;4992458;28;20456;-82
2023/11/26 05:40:40;;;;;;;27.13;13.80;;;;;;;;;;4994930;28;21147;-82
2023/11/26 05:43:07;;;;;;;25.10;14.20;;;;;;;;;;4991036;28;20527;-83
2023/11/26 05:45:33;;;;;;;20.03;13.67;;;;;;;;;;4987745;28;20563;-81
2023/11/26 05:48:00;;;;;;;25.60;14.87;;;;;;;;;;4990179;28;20498;-81
2023/11/26 05:50:27;;;;;;;19.90;12.63;;;;;;;;;;4982967;28;20452;-84
2023/11/26 05:52:54;;;;;;;23.27;13.70;;;;;;;;;;4997596;28;20574;-85
2023/11/26 05:55:21;;;;;;;21.27;14.87;;;;;;;;;;5000885;28;20482;-81
2023/11/26 05:57:48;;;;;;;23.00;14.80;;;;;;;;;;5000242;28;20463;-83
2023/11/26 06:00:15;;;;;;;21.07;14.40;;;;;;;;;;4999125;28;20491;-83
2023/11/26 06:02:42;;;;;;;28.80;14.40;;;;;;;;;;4997488;28;20494;-82
2023/11/26 06:05:09;;;;;;;25.37;15.00;;;;;;;;;;4991004;28;20496;-80
2023/11/26 06:07:37;;;;;;;32.07;13.23;;;;;;;;;;5001931;28;20494;-81
2023/11/26 06:10:04;;;;;;;24.40;14.27;;;;;;;;;;4989435;28;20519;-80
2023/11/26 06:12:31;;;;;;;23.67;14.90;;;;;;;;;;4993381;28;20463;-84
2023/11/26 06:14:57;;;;;;;23.17;15.00;;;;;;;;;;5000464;28;20459;-84
2023/11/26 06:17:24;;;;;;;26.63;15.20;;;;;;;;;;4997213;28;20458;-84
2023/11/26 06:19:50;;;;;;;21.50;13.50;;;;;;;;;;4993879;28;20542;-85
2023/11/26 06:22:17;;;;;;;26.50;15.03;;;;;;;;;;4995466;28;20527;-83
2023/11/26 06:24:45;;;;;;;25.07;15.27;;;;;;;;;;4999155;28;20953;-84
2023/11/26 06:27:11;;;;;;;21.70;14.70;;;;;;;;;;4999030;28;20482;-84
2023/11/26 06:29:38;;;;;;;21.80;14.30;;;;;;;;;;4998413;28;20494;-84
2023/11/26 06:32:05;;;;;;;27.17;16.00;;;;;;;;;;4999553;28;20471;-84
2023/11/26 06:34:31;;;;;;;29.83;17.23;;;;;;;;;;5000626;28;20459;-84
2023/11/26 06:36:58;;;;;;;23.13;15.57;;;;;;;;;;4991972;28;20447;-84
2023/11/26 06:39:24;;;;;;;24.93;15.43;;;;;;;;;;4997203;28;20494;-85
2023/11/26 06:41:52;;;;;;;21.67;16.23;;;;;;;;;;4999565;28;20515;-85
2023/11/26 06:44:20;;;;;;;24.50;14.90;;;;;;;;;;4994840;28;20887;-85
2023/11/26 06:46:47;;;;;;;25.93;16.23;;;;;;;;;;4999669;28;20465;-85
2023/11/26 06:49:13;;;;;;;26.90;17.67;;;;;;;;;;4998682;28;20515;-85
2023/11/26 06:51:40;;;;;;;29.37;15.90;;;;;;;;;;4999952;28;20451;-86
2023/11/26 06:54:07;;;;;;;26.00;17.20;;;;;;;;;;4999966;28;20464;-84
2023/11/26 06:56:33;;;;;;;34.03;19.63;;;;;;;;;;5002418;28;20455;-83
2023/11/26 06:59:02;;;;;;;25.77;16.27;;;;;;;;;;4992151;28;20585;-82
2023/11/26 07:01:28;;;;;;;26.00;17.10;;;;;;;;;;4992062;28;20572;-83
2023/11/26 07:03:54;;;;;;;31.93;17.73;;;;;;;;;;4994938;28;20512;-82
2023/11/26 07:06:21;;;;;;;31.13;17.90;;;;;;;;;;4996956;28;20550;-82
2023/11/26 07:08:47;;;;;;;26.60;17.00;;;;;;;;;;4994075;28;20578;-83
2023/11/26 07:11:18;;;;;;;28.27;17.00;;;;;;;;;;4997157;28;20483;-83
2023/11/26 07:13:44;;;;;;;26.30;17.63;;;;;;;;;;5001318;28;20459;-83
2023/11/26 07:16:12;;;;;;;28.07;16.63;;;;;;;;;;4995194;28;20956;-83
2023/11/26 07:18:38;;;;;;;31.23;17.43;;;;;;;;;;4991742;28;20538;-82
2023/11/26 07:21:05;;;;;;;30.80;17.47;;;;;;;;;;4989365;28;20514;-83
2023/11/26 07:23:32;;;;;;;30.23;18.63;;;;;;;;;;4997443;28;21035;-82
2023/11/26 07:25:58;;;;;;;35.30;19.47;;;;;;;;;;4989402;28;20451;-82
2023/11/26 07:28:25;;;;;;;33.27;19.27;;;;;;;;;;5001008;28;20546;-82
2023/11/26 07:30:52;;;;;;;29.40;18.93;;;;;;;;;;4989991;28;20452;-80
2023/11/26 07:33:20;;;;;;;32.53;18.07;;;;;;;;;;5001335;28;20459;-81
2023/11/26 07:35:47;;;;;;;30.50;19.23;;;;;;;;;;4991902;28;20475;-82
2023/11/26 07:38:14;;;;;;;35.67;19.60;;;;;;;;;;4993071;28;20459;-82
2023/11/26 07:40:41;;;;;;;35.73;20.20;;;;;;;;;;4993897;28;20476;-81
2023/11/26 07:43:08;;;;;;;29.30;19.33;;;;;;;;;;4993903;28;20461;-81
2023/11/26 07:45:34;;;;;;;33.03;18.37;;;;;;;;;;4996688;28;20938;-83
2023/11/26 07:48:02;;;;;;;29.80;18.50;;;;;;;;;;4996399;28;20563;-82
2023/11/26 07:50:32;;;;;;;32.70;20.87;;;;;;;;;;4995740;28;20462;-83
2023/11/26 07:52:58;;;;;;;33.70;20.40;;;;;;;;;;4993866;28;20479;-81
2023/11/26 07:55:25;;;;;;;31.33;18.80;;;;;;;;;;4996886;28;20463;-82
2023/11/26 07:57:52;;;;;;;32.43;19.70;;;;;;;;;;5000495;28;20487;-81
2023/11/26 08:00:21;;;;;;;30.90;19.20;;;;;;;;;;4997473;28;20571;-82
2023/11/26 08:02:49;;;;;;;39.67;20.00;;;;;;;;;;4991378;28;20518;-81
2023/11/26 08:05:18;;;;;;;34.87;19.10;;;;;;;;;;4988616;28;20519;-82
2023/11/26 08:07:47;;;;;;;34.20;20.23;;;;;;;;;;4987951;28;20487;-84
2023/11/26 08:10:20;;;;;;;37.57;20.13;;;;;;;;;;4990066;28;20447;-80
2023/11/26 08:12:49;;;;;;;33.67;19.87;;;;;;;;;;4991305;28;21024;-84
2023/11/26 08:15:19;;;;;;;37.50;20.03;;;;;;;;;;4990190;28;20475;-83
2023/11/26 08:17:49;;;;;;;39.43;22.23;;;;;;;;;;4987734;28;20449;-84
2023/11/26 08:20:15;;;;;;;35.63;21.00;;;;;;;;;;4987582;28;20488;-83
2023/11/26 08:22:46;;;;;;;35.57;20.70;;;;;;;;;;4990728;28;20444;-83
2023/11/26 08:25:17;;;;;;;30.73;19.97;;;;;;;;;;4985125;28;20463;-83
2023/11/26 08:27:46;;;;;;;35.33;22.03;;;;;;;;;;4987156;28;20448;-80
2023/11/26 08:30:15;;;;;;;33.37;20.37;;;;;;;;;;4988839;28;20470;-82
2023/11/26 08:32:44;;;;;;;34.60;20.67;;;;;;;;;;4987339;28;20480;-82
2023/11/26 08:35:11;;;;;;;32.10;21.10;;;;;;;;;;4987477;28;20520;-82
2023/11/26 08:37:39;;;;;;;33.73;20.00;;;;;;;;;;4995186;28;20487;-82
2023/11/26 08:40:07;;;;;;;34.07;20.33;;;;;;;;;;4990851;28;20492;-82
2023/11/26 08:42:37;;;;;;;33.23;20.37;;;;;;;;;;4990190;28;20484;-82
2023/11/26 08:45:04;;;;;;;33.27;20.90;;;;;;;;;;4986238;28;20464;-81
2023/11/26 08:47:33;;;;;;;37.70;20.30;;;;;;;;;;4988414;28;20472;-81
2023/11/26 08:50:00;;;;;;;34.47;19.60;;;;;;;;;;4987151;28;20475;-83
2023/11/26 08:52:28;;;;;;;29.07;17.73;;;;;;;;;;4989316;28;20447;-83
2023/11/26 08:54:54;;;;;;;26.23;19.00;;;;;;;;;;4993896;28;21494;-84
2023/11/26 08:57:21;;;;;;;33.73;19.40;;;;;;;;;;4990275;28;20458;-81
2023/11/26 08:59:49;;;;;;;33.30;20.13;;;;;;;;;;4988028;28;20488;-83
2023/11/26 09:02:15;;;;;;;29.77;18.87;;;;;;;;;;4991842;28;20535;-83
2023/11/26 09:04:42;;;;;;;30.60;20.97;;;;;;;;;;4988416;28;20467;-84
2023/11/26 09:07:08;;;;;;;29.90;18.10;;;;;;;;;;4988862;28;20464;-84
2023/11/26 09:09:35;;;;;;;29.90;18.27;;;;;;;;;;4989619;28;20542;-85
2023/11/26 09:12:03;;;;;;;27.60;18.40;;;;;;;;;;4995222;28;20956;-84
2023/11/26 09:14:29;;;;;;;28.40;18.57;;;;;;;;;;4999920;28;20487;-85
2023/11/26 09:16:57;;;;;;;29.90;18.27;;;;;;;;;;4995642;28;20550;-84
2023/11/26 09:19:23;;;;;;;30.77;17.30;;;;;;;;;;4997318;28;20491;-82
2023/11/26 09:21:50;;;;;;;30.30;17.07;;;;;;;;;;4999157;28;20515;-83
2023/11/26 09:24:16;;;;;;;28.90;18.30;;;;;;;;;;4989537;28;20491;-85
2023/11/26 09:26:43;;;;;;;28.10;18.47;;;;;;;;;;4991235;28;20492;-85
2023/11/26 09:29:10;;;;;;;31.43;18.40;;;;;;;;;;4997474;28;20455;-84
2023/11/26 09:31:41;;;;;;;25.13;17.73;;;;;;;;;;4990624;28;20520;-84
2023/11/26 09:34:10;;;;;;;29.83;17.70;;;;;;;;;;4991666;28;20476;-84
2023/11/26 09:36:40;;;;;;;28.60;17.30;;;;;;;;;;4994664;28;20487;-84
2023/11/26 09:39:06;;;;;;;24.87;17.03;;;;;;;;;;4994661;28;20491;-87
2023/11/26 09:41:33;;;;;;;23.33;16.20;;;;;;;;;;4996713;28;20559;-84
2023/11/26 09:43:59;;;;;;;21.13;15.60;;;;;;;;;;4998207;28;20514;-84
2023/11/26 09:46:26;;;;;;;22.47;15.13;;;;;;;;;;4994028;28;20543;-84
2023/11/26 09:48:53;;;;;;;23.13;14.10;;;;;;;;;;5002549;28;21110;-84
2023/11/26 09:51:22;;;;;;;23.27;14.70;;;;;;;;;;4997519;28;20516;-85
2023/11/26 09:53:51;;;;;;;24.00;16.00;;;;;;;;;;4991799;28;20487;-86
2023/11/26 09:56:20;;;;;;;27.47;16.00;;;;;;;;;;4995235;28;20873;-86
2023/11/26 09:58:46;;;;;;;27.93;13.77;;;;;;;;;;5003545;28;20485;-89
2023/11/26 10:01:13;;;;;;;24.30;12.70;;;;;;;;;;5000025;28;20483;-85
2023/11/26 10:03:57;;;;;;;17.33;13.80;;;;;;;;;;5003213;28;20511;-84
2023/11/26 10:06:24;;;;;;;21.37;14.63;;;;;;;;;;4999914;28;20482;-77
2023/11/26 10:08:51;;;;;;;21.73;14.03;;;;;;;;;;5002403;28;20528;-75
2023/11/26 10:11:20;;;;;;;23.83;13.10;;;;;;;;;;5001118;28;20471;-78
2023/11/26 10:13:46;;;;;;;22.20;13.00;;;;;;;;;;4990845;28;20479;-78
2023/11/26 10:16:27;;;;;;;17.30;11.57;;;;;;;;;;4993461;28;20929;-80
2023/11/26 10:18:53;;;;;;;14.07;11.93;;;;;;;;;;5001725;28;20482;-81
2023/11/26 10:21:20;;;;;;;14.80;12.30;;;;;;;;;;4995168;28;20565;-82
2023/11/26 10:23:47;;;;;;;16.20;12.90;;;;;;;;;;5000091;28;20486;-80
2023/11/26 10:26:22;;;;;;;20.60;12.20;;;;;;;;;;5002234;28;20455;-80
2023/11/26 10:29:01;;;;;;;14.90;10.63;;;;;;;;;;4994569;28;21156;-82
2023/11/26 10:31:27;;;;;;;18.10;12.10;;;;;;;;;;4995134;28;21006;-82
2023/11/26 10:34:07;;;;;;;16.50;10.57;;;;;;;;;;4987120;28;21271;-81
2023/11/26 10:36:33;;;;;;;14.83;11.30;;;;;;;;;;4991667;28;20476;-78
2023/11/26 10:39:04;;;;;;;16.10;9.73;;;;;;;;;;4999860;28;20451;-77
2023/11/26 10:41:32;;;;;;;15.30;10.67;;;;;;;;;;4995162;28;20483;-78
2023/11/26 10:43:58;;;;;;;15.87;10.07;;;;;;;;;;4998412;28;20454;-78
2023/11/26 10:46:26;;;;;;;11.30;10.20;;;;;;;;;;4991956;28;20476;-77
2023/11/26 10:48:55;;;;;;;12.87;8.97;;;;;;;;;;4996487;28;21066;-75
2023/11/26 10:51:26;;;;;;;15.70;9.47;;;;;;;;;;4992626;28;20507;-76
2023/11/26 10:53:56;;;;;;;11.30;9.27;;;;;;;;;;4988775;28;20524;-74
2023/11/26 10:56:27;;;;;;;15.13;9.37;;;;;;;;;;4998388;28;20487;-76
2023/11/26 10:58:58;;;;;;;10.40;8.93;;;;;;;;;;4998971;28;21035;-77
2023/11/26 11:01:24;;;;;;;12.20;8.30;;;;;;;;;;4992672;28;20488;-78
2023/11/26 11:03:51;;;;;;;14.90;8.50;;;;;;;;;;5002327;28;20516;-78
2023/11/26 11:06:20;;;;;;;16.43;9.60;;;;;;;;;;4994895;28;20483;-78
2023/11/26 11:08:47;;;;;;;14.03;8.73;;;;;;;;;;4997437;28;20504;-77
2023/11/26 11:11:19;;;;;;;17.60;9.57;;;;;;;;;;4991961;28;20447;-81
2023/11/26 11:13:47;;;;;;;16.53;7.83;;;;;;;;;;4991848;28;21016;-80
2023/11/26 11:16:14;;;;;;;16.20;8.27;;;;;;;;;;4994940;28;20531;-80
2023/11/26 11:18:41;;;;;;;12.00;8.47;;;;;;;;;;5001864;28;20466;-77
2023/11/26 11:21:10;;;;;;;13.63;8.40;;;;;;;;;;5002389;28;21664;-75
2023/11/26 11:23:37;;;;;;;10.30;8.20;;;;;;;;;;4997959;28;20452;-81
2023/11/26 11:26:05;;;;;;;14.60;8.20;;;;;;;;;;4998641;28;20491;-78
2023/11/26 11:28:42;;;;;;;9.90;7.10;;;;;;;;;;4996614;28;20463;-80
2023/11/26 11:31:10;;;;;;;13.13;8.07;;;;;;;;;;4996007;28;20537;-78
2023/11/26 11:33:57;;;;;;;8.20;7.40;;;;;;;;;;4998548;28;20462;-81
2023/11/26 11:36:41;;;;;;;10.80;7.33;;;;;;;;;;4991284;28;20491;-79
2023/11/26 11:39:09;;;;;;;8.67;7.47;;;;;;;;;;4987577;28;20538;-81
2023/11/26 11:42:04;;;;;;;10.67;7.73;;;;;;;;;;5007485;28;20471;-79
2023/11/26 11:44:31;;;;;;;17.67;8.40;;;;;;;;;;4994018;28;20463;-78
2023/11/26 11:46:59;;;;;;;14.57;9.70;;;;;;;;;;4988827;28;20527;-77
2023/11/26 11:49:31;;;;;;;9.07;7.60;;;;;;;;;;4988450;28;20582;-77
2023/11/26 11:51:59;;;;;;;9.40;6.80;;;;;;;;;;5000449;28;20454;-78
2023/11/26 11:54:52;;;;;;;10.30;6.43;;;;;;;;;;4997186;28;20524;-79
2023/11/26 11:57:20;;;;;;;11.57;7.53;;;;;;;;;;5000132;28;20543;-79
2023/11/26 11:59:46;;;;;;;9.80;6.80;;;;;;;;;;4999067;28;20479;-79
2023/11/26 12:02:16;;;;;;;8.00;7.20;;;;;;;;;;5000401;28;20476;-81
2023/11/26 12:04:44;;;;;;;11.83;6.07;;;;;;;;;;4996478;28;21049;-80
2023/11/26 12:07:11;;;;;;;13.30;7.10;;;;;;;;;;4994576;28;20463;-79
2023/11/26 12:09:38;;;;;;;10.00;9.10;;;;;;;;;;4994779;28;20965;-78
2023/11/26 12:12:04;;;;;;;10.20;6.60;;;;;;;;;;4996852;28;20459;-80
2023/11/26 12:14:31;;;;;;;7.00;6.30;;;;;;;;;;4993566;28;20467;-80
2023/11/26 12:16:57;;;;;;;8.13;6.20;;;;;;;;;;4995077;28;21160;-80
2023/11/26 12:19:25;;;;;;;9.87;6.90;;;;;;;;;;4994979;28;20519;-82
2023/11/26 12:21:53;;;;;;;8.30;6.30;;;;;;;;;;4989241;28;20519;-85
2023/11/26 12:24:20;;;;;;;10.13;7.07;;;;;;;;;;4996202;28;20841;-81
2023/11/26 12:26:46;;;;;;;10.43;6.80;;;;;;;;;;4992510;28;20908;-81
2023/11/26 12:29:14;;;;;;;12.60;5.77;;;;;;;;;;4992242;28;20487;-80
2023/11/26 12:31:41;;;;;;;12.53;6.90;;;;;;;;;;4994095;28;20447;-80
2023/11/26 12:34:07;;;;;;;15.87;6.03;;;;;;;;;;4992579;28;20452;-82
2023/11/26 12:36:35;;;;;;;10.67;6.70;;;;;;;;;;4988237;28;20456;-84
2023/11/26 12:39:03;;;;;;;14.30;6.50;;;;;;;;;;4993673;28;20487;-82
2023/11/26 12:41:29;;;;;;;8.27;5.90;;;;;;;;;;4999515;28;20519;-85
2023/11/26 12:44:01;;;;;;;6.37;5.40;;;;;;;;;;4996585;28;20958;-86
2023/11/26 12:46:28;;;;;;;8.90;6.03;;;;;;;;;;4995181;28;20462;-83
2023/11/26 12:48:55;;;;;;;8.80;6.20;;;;;;;;;;5000252;28;20515;-85
2023/11/26 12:51:21;;;;;;;12.80;5.77;;;;;;;;;;5002937;28;20488;-82
2023/11/26 12:53:52;;;;;;;8.00;5.60;;;;;;;;;;5001018;28;20468;-83
2023/11/26 12:56:22;;;;;;;6.70;5.17;;;;;;;;;;5010304;28;20556;-85
2023/11/26 12:58:49;;;;;;;14.20;6.17;;;;;;;;;;4995824;28;20465;-81
2023/11/26 13:01:23;;;;;;;12.87;6.87;;;;;;;;;;4999260;28;20564;-81
2023/11/26 13:03:50;;;;;;;9.50;6.43;;;;;;;;;;4991938;28;20518;-84
2023/11/26 13:06:17;;;;;;;8.73;6.20;;;;;;;;;;4991290;28;20460;-83
2023/11/26 13:08:43;;;;;;;9.77;6.40;;;;;;;;;;4992002;28;20557;-83
2023/11/26 13:11:20;;;;;;;7.87;5.60;;;;;;;;;;4987765;28;20449;-82
2023/11/26 13:13:46;;;;;;;19.50;6.50;;;;;;;;;;4992753;28;20523;-84
2023/11/26 13:16:13;;;;;;;10.80;5.73;;;;;;;;;;4993997;28;20919;-82
2023/11/26 13:18:40;;;;;;;9.97;6.60;;;;;;;;;;4989937;28;20517;-85
2023/11/26 13:21:07;;;;;;;8.77;5.53;;;;;;;;;;4993119;28;20492;-88
2023/11/26 13:23:33;;;;;;;6.50;5.73;;;;;;;;;;4994236;28;20483;-88
2023/11/26 13:26:00;;;;;;;8.27;5.50;;;;;;;;;;4994116;28;20813;-88
2023/11/26 13:28:30;;;;;;;8.00;6.00;;;;;;;;;;4995044;28;20507;-86
2023/11/26 13:30:59;;;;;;;7.40;5.70;;;;;;;;;;4994476;28;20531;-82
2023/11/26 13:33:25;;;;;;;9.10;5.77;;;;;;;;;;4993666;28;20468;-82
2023/11/26 13:35:54;;;;;;;11.60;5.70;;;;;;;;;;4993748;28;20510;-83
2023/11/26 13:38:21;;;;;;;16.03;7.00;;;;;;;;;;4990956;28;20459;-84
2023/11/26 13:40:47;;;;;;;8.77;6.10;;;;;;;;;;4999547;28;20483;-84
2023/11/26 13:43:16;;;;;;;13.37;6.87;;;;;;;;;;4990619;28;20702;-83
2023/11/26 13:45:44;;;;;;;11.50;6.37;;;;;;;;;;4993999;28;20541;-86
2023/11/26 13:48:11;;;;;;;12.57;6.57;;;;;;;;;;4998507;28;20529;-83
2023/11/26 13:50:37;;;;;;;10.03;6.30;;;;;;;;;;4996918;28;20469;-82
2023/11/26 13:53:05;;;;;;;15.47;5.80;;;;;;;;;;4996686;28;20483;-82
2023/11/26 13:55:31;;;;;;;14.70;6.87;;;;;;;;;;4985021;28;20515;-82
2023/11/26 13:57:58;;;;;;;10.30;7.13;;;;;;;;;;4991677;28;21012;-78
2023/11/26 14:00:25;;;;;;;13.00;6.50;;;;;;;;;;4995301;28;20467;-80
2023/11/26 14:02:53;;;;;;;11.10;6.60;;;;;;;;;;4992906;28;21029;-81
2023/11/26 14:05:20;;;;;;;19.30;7.50;;;;;;;;;;4996173;28;20447;-84
2023/11/26 14:07:46;;;;;;;19.20;9.40;;;;;;;;;;4987927;28;20543;-84
2023/11/26 14:10:15;;;;;;;13.33;6.47;;;;;;;;;;4996977;28;20467;-80
2023/11/26 14:12:41;;;;;;;7.43;5.83;;;;;;;;;;4995573;28;20468;-79
2023/11/26 14:15:08;;;;;;;10.27;6.13;;;;;;;;;;4995919;28;20459;-79
2023/11/26 14:17:35;;;;;;;10.93;6.23;;;;;;;;;;4993513;28;20475;-81
2023/11/26 14:20:04;;;;;;;8.50;5.50;;;;;;;;;;4996999;28;20447;-78
2023/11/26 14:22:30;;;;;;;13.27;6.07;;;;;;;;;;4996887;28;20514;-84
2023/11/26 14:24:57;;;;;;;10.27;5.93;;;;;;;;;;5001466;28;20482;-81
2023/11/26 14:27:23;;;;;;;7.87;5.57;;;;;;;;;;5000061;28;20456;-82
2023/11/26 14:29:50;;;;;;;8.77;6.50;;;;;;;;;;4996171;28;20524;-84
2023/11/26 14:32:16;;;;;;;14.87;6.10;;;;;;;;;;4991779;28;20491;-81
2023/11/26 14:34:42;;;;;;;8.53;6.67;;;;;;;;;;5000918;28;20454;-83